createdAt,value
2022-08-05T00:00:35.319Z,-74
2022-08-05T00:03:15.641Z,-75
2022-08-05T00:06:06.450Z,-73
2022-08-05T00:08:34.624Z,-73
2022-08-05T00:11:28.080Z,-75
2022-08-05T00:13:58.860Z,-73
2022-08-05T00:16:36.365Z,-74
2022-08-05T00:19:15.481Z,-73
2022-08-05T00:21:43.506Z,-73
2022-08-05T00:24:18.996Z,-74
2022-08-05T00:26:54.059Z,-73
2022-08-05T00:29:25.525Z,-73
2022-08-05T00:32:13.413Z,-74
2022-08-05T00:35:04.538Z,-75
2022-08-05T00:37:51.285Z,-74
2022-08-05T00:40:28.045Z,-74
2022-08-05T00:43:00.558Z,-75
2022-08-05T00:45:42.930Z,-73
2022-08-05T00:48:14.506Z,-73
2022-08-05T00:50:46.575Z,-75
2022-08-05T00:54:00.001Z,-75
2022-08-05T00:56:05.513Z,-75
2022-08-05T00:58:37.700Z,-73
2022-08-05T01:01:09.036Z,-73
2022-08-05T01:03:38.052Z,-74
2022-08-05T01:06:06.839Z,-74
2022-08-05T01:08:44.269Z,-74
2022-08-05T01:11:22.163Z,-72
2022-08-05T01:14:08.710Z,-73
2022-08-05T01:16:49.039Z,-74
2022-08-05T01:20:01.822Z,-74
2022-08-05T01:22:47.002Z,-74
2022-08-05T01:25:58.995Z,-73
2022-08-05T01:28:36.304Z,-74
2022-08-05T01:31:13.045Z,-72
2022-08-05T01:33:53.760Z,-74
2022-08-05T01:36:28.637Z,-73
2022-08-05T01:39:00.395Z,-75
2022-08-05T01:41:35.576Z,-73
2022-08-05T01:44:09.723Z,-74
2022-08-05T01:46:43.111Z,-75
2022-08-05T01:49:24.357Z,-74
2022-08-05T01:51:59.791Z,-74
2022-08-05T01:54:45.884Z,-74
2022-08-05T01:58:12.462Z,-73
2022-08-05T02:00:11.926Z,-73
2022-08-05T02:02:54.467Z,-75
2022-08-05T02:05:29.277Z,-74
2022-08-05T02:08:01.249Z,-73
2022-08-05T02:10:38.039Z,-75
2022-08-05T02:13:16.587Z,-74
2022-08-05T02:15:51.904Z,-74
2022-08-05T02:18:31.818Z,-74
2022-08-05T02:21:15.103Z,-74
2022-08-05T02:23:47.615Z,-73
2022-08-05T02:26:24.400Z,-72
2022-08-05T02:28:58.236Z,-76
2022-08-05T02:31:35.028Z,-74
2022-08-05T02:34:10.104Z,-72
2022-08-05T02:36:46.571Z,-73
2022-08-05T02:39:21.424Z,-75
2022-08-05T02:42:00.457Z,-75
2022-08-05T02:44:31.810Z,-73
2022-08-05T02:47:02.890Z,-74
2022-08-05T02:49:37.909Z,-73
2022-08-05T02:52:29.677Z,-74
2022-08-05T02:55:02.084Z,-75
2022-08-05T02:58:12.295Z,-73
2022-08-05T03:00:26.122Z,-66
2022-08-05T03:02:59.768Z,-65
2022-08-05T03:06:56.226Z,-67
2022-08-05T03:08:19.591Z,-66
2022-08-05T03:11:55.692Z,-68
2022-08-05T03:13:52.019Z,-66
2022-08-05T03:16:31.746Z,-66
2022-08-05T03:19:01.378Z,-65
2022-08-05T03:21:41.612Z,-65
2022-08-05T03:24:30.228Z,-66
2022-08-05T03:26:59.681Z,-65
2022-08-05T03:29:45.837Z,-66
2022-08-05T03:32:17.616Z,-66
2022-08-05T03:34:50.474Z,-66
2022-08-05T03:37:21.707Z,-67
2022-08-05T03:40:01.626Z,-66
2022-08-05T03:42:41.667Z,-65
2022-08-05T03:45:21.490Z,-66
2022-08-05T03:47:51.727Z,-67
2022-08-05T03:50:30.190Z,-65
2022-08-05T03:54:59.276Z,-66
2022-08-05T03:56:11.002Z,-66
2022-08-05T03:58:46.913Z,-67
2022-08-05T04:01:20.820Z,-65
2022-08-05T04:04:09.179Z,-65
2022-08-05T04:06:47.428Z,-67
2022-08-05T04:09:25.860Z,-66
2022-08-05T04:11:56.791Z,-67
2022-08-05T04:14:30.437Z,-65
2022-08-05T04:17:00.914Z,-66
2022-08-05T04:19:31.823Z,-66
2022-08-05T04:22:08.561Z,-65
2022-08-05T04:24:44.025Z,-65
2022-08-05T04:27:14.152Z,-67
2022-08-05T04:29:43.858Z,-66
2022-08-05T04:32:13.332Z,-65
2022-08-05T04:34:43.752Z,-66
2022-08-05T04:37:13.196Z,-65
2022-08-05T04:39:41.442Z,-66
2022-08-05T04:42:10.327Z,-65
2022-08-05T04:44:39.136Z,-66
2022-08-05T04:47:08.817Z,-66
2022-08-05T04:50:01.308Z,-66
2022-08-05T04:52:28.995Z,-67
2022-08-05T04:54:57.973Z,-66
2022-08-05T04:57:37.298Z,-66
2022-08-05T05:00:06.810Z,-66
2022-08-05T05:02:41.813Z,-67
2022-08-05T05:05:16.706Z,-67
2022-08-05T05:08:01.489Z,-66
2022-08-05T05:10:30.861Z,-65
2022-08-05T05:13:03.975Z,-68
2022-08-05T05:15:57.437Z,-66
2022-08-05T05:18:28.720Z,-66
2022-08-05T05:21:01.509Z,-66
2022-08-05T05:24:02.029Z,-66
2022-08-05T05:26:19.330Z,-65
2022-08-05T05:28:47.407Z,-66
2022-08-05T05:31:15.634Z,-65
2022-08-05T05:33:59.551Z,-66
2022-08-05T05:36:30.084Z,-67
2022-08-05T05:38:59.771Z,-66
2022-08-05T05:41:39.977Z,-67
2022-08-05T05:44:35.525Z,-66
2022-08-05T05:46:58.028Z,-66
2022-08-05T05:49:26.650Z,-67
2022-08-05T05:51:54.910Z,-66
2022-08-05T05:54:35.471Z,-66
2022-08-05T05:57:13.851Z,-67
2022-08-05T05:59:47.371Z,-66
2022-08-05T06:02:17.357Z,-66
2022-08-05T06:05:01.283Z,-67
2022-08-05T06:07:41.391Z,-68
2022-08-05T06:10:12.661Z,-67
2022-08-05T06:12:42.298Z,-68
2022-08-05T06:15:16.395Z,-67
2022-08-05T06:17:54.578Z,-66
2022-08-05T06:20:23.115Z,-66
2022-08-05T06:22:51.213Z,-66
2022-08-05T06:25:59.040Z,-66
2022-08-05T06:28:12.353Z,-66
2022-08-05T06:30:49.714Z,-66
2022-08-05T06:33:19.535Z,-66
2022-08-05T06:36:03.731Z,-66
2022-08-05T06:38:37.679Z,-65
2022-08-05T06:41:07.906Z,-66
2022-08-05T06:43:57.742Z,-65
2022-08-05T06:46:30.174Z,-65
2022-08-05T06:48:59.723Z,-65
2022-08-05T06:51:30.928Z,-66
2022-08-05T06:54:01.986Z,-65
2022-08-05T06:56:34.833Z,-65
2022-08-05T06:59:04.006Z,-66
2022-08-05T07:01:40.736Z,-66
2022-08-05T07:04:10.887Z,-65
2022-08-05T07:06:42.208Z,-67
2022-08-05T07:09:10.238Z,-64
2022-08-05T07:11:40.057Z,-66
2022-08-05T07:14:29.479Z,-66
2022-08-05T07:17:59.397Z,-67
2022-08-05T07:20:34.025Z,-65
2022-08-05T07:22:38.792Z,-66
2022-08-05T07:25:53.943Z,-66
2022-08-05T07:28:03.825Z,-66
2022-08-05T07:30:38.166Z,-65
2022-08-05T07:33:10.411Z,-66
2022-08-05T07:36:01.878Z,-66
2022-08-05T07:38:43.328Z,-66
2022-08-05T07:42:14.488Z,-65
2022-08-05T07:44:14.336Z,-65
2022-08-05T07:46:49.269Z,-66
2022-08-05T07:49:18.957Z,-66
2022-08-05T07:51:52.982Z,-67
2022-08-05T07:54:31.169Z,-67
2022-08-05T07:57:14.538Z,-66
2022-08-05T07:59:53.660Z,-65
2022-08-05T08:02:31.378Z,-66
2022-08-05T08:05:15.084Z,-66
2022-08-05T08:07:59.762Z,-66
2022-08-05T08:10:29.273Z,-65
2022-08-05T08:12:58.770Z,-69
2022-08-05T08:16:34.531Z,-64
2022-08-05T08:18:20.932Z,-64
2022-08-05T08:21:02.548Z,-64
2022-08-05T08:24:02.399Z,-67
2022-08-05T08:26:29.453Z,-67
2022-08-05T08:29:09.775Z,-66
2022-08-05T08:31:50.096Z,-67
2022-08-05T08:34:18.961Z,-66
2022-08-05T08:37:04.617Z,-68
2022-08-05T08:39:37.519Z,-67
2022-08-05T08:42:34.127Z,-65
2022-08-05T08:45:18.348Z,-65
2022-08-05T08:48:11.778Z,-65
2022-08-05T08:51:03.615Z,-65
2022-08-05T08:53:44.359Z,-65
2022-08-05T08:56:13.733Z,-66
2022-08-05T08:58:48.583Z,-66
2022-08-05T09:01:18.400Z,-66
2022-08-05T09:03:55.611Z,-64
2022-08-05T09:06:30.056Z,-64
2022-08-05T09:09:01.647Z,-64
2022-08-05T09:11:52.940Z,-63
2022-08-05T09:14:59.129Z,-64
2022-08-05T09:17:39.919Z,-63
2022-08-05T09:20:05.162Z,-64
2022-08-05T09:23:09.216Z,-64
2022-08-05T09:26:01.419Z,-64
2022-08-05T09:28:31.509Z,-64
2022-08-05T09:31:22.571Z,-65
2022-08-05T09:33:58.499Z,-66
2022-08-05T09:36:45.741Z,-68
2022-08-05T09:39:27.709Z,-68
2022-08-05T09:42:11.416Z,-64
2022-08-05T09:44:50.567Z,-65
2022-08-05T09:47:22.275Z,-66
2022-08-05T09:50:01.297Z,-66
2022-08-05T09:52:34.823Z,-67
2022-08-05T09:55:56.749Z,-64
2022-08-05T09:57:58.662Z,-65
2022-08-05T10:00:29.600Z,-65
2022-08-05T10:02:59.365Z,-65
2022-08-05T10:05:32.740Z,-66
2022-08-05T10:08:35.000Z,-70
2022-08-05T10:10:54.912Z,-64
2022-08-05T10:13:47.386Z,-64
2022-08-05T10:16:41.553Z,-64
2022-08-05T10:19:13.618Z,-64
2022-08-05T10:21:42.135Z,-65
2022-08-05T10:24:13.959Z,-68
2022-08-05T10:26:49.098Z,-68
2022-08-05T10:29:23.657Z,-67
2022-08-05T10:32:52.053Z,-66
2022-08-05T10:34:41.137Z,-68
2022-08-05T10:37:09.569Z,-66
2022-08-05T10:39:59.236Z,-67
2022-08-05T10:42:38.328Z,-67
2022-08-05T10:45:23.965Z,-67
2022-08-05T10:48:52.831Z,-66
2022-08-05T10:51:28.790Z,-67
2022-08-05T10:54:01.763Z,-67
2022-08-05T10:56:49.283Z,-67
2022-08-05T11:00:03.522Z,-66
2022-08-05T11:02:14.685Z,-67
2022-08-05T11:04:58.687Z,-67
2022-08-05T11:07:33.316Z,-67
2022-08-05T11:10:27.496Z,-67
2022-08-05T11:12:58.334Z,-66
2022-08-05T11:15:59.157Z,-66
2022-08-05T11:18:30.031Z,-66
2022-08-05T11:21:02.568Z,-67
2022-08-05T11:24:05.353Z,-66
2022-08-05T11:26:28.189Z,-64
2022-08-05T11:29:12.867Z,-64
2022-08-05T11:31:57.290Z,-65
2022-08-05T11:34:47.503Z,-66
2022-08-05T11:38:28.116Z,-68
2022-08-05T11:41:35.638Z,-67
2022-08-05T11:44:06.621Z,-68
2022-08-05T11:46:58.143Z,-64
2022-08-05T11:49:29.328Z,-65
2022-08-05T11:52:08.406Z,-66
2022-08-05T11:54:41.415Z,-68
2022-08-05T11:57:24.403Z,-67
2022-08-05T11:59:54.742Z,-66
2022-08-05T12:02:32.976Z,-66
2022-08-05T12:05:06.838Z,-66
2022-08-05T12:08:10.443Z,-66
2022-08-05T12:10:43.092Z,-67
2022-08-05T12:13:27.908Z,-67
2022-08-05T12:16:15.699Z,-66
2022-08-05T12:18:48.928Z,-65
2022-08-05T12:21:26.965Z,-67
2022-08-05T12:24:04.746Z,-66
2022-08-05T12:26:35.582Z,-66
2022-08-05T12:29:09.830Z,-66
2022-08-05T12:31:49.757Z,-67
2022-08-05T12:34:28.136Z,-71
2022-08-05T12:36:58.062Z,-67
2022-08-05T12:39:37.460Z,-68
2022-08-05T12:42:14.945Z,-68
2022-08-05T12:44:45.305Z,-68
2022-08-05T12:47:25.554Z,-68
2022-08-05T12:50:04.464Z,-73
2022-08-05T12:52:42.008Z,-73
2022-08-05T12:55:26.166Z,-78
2022-08-05T12:58:49.933Z,-74
2022-08-05T13:02:03.140Z,-67
2022-08-05T13:03:42.329Z,-69
2022-08-05T13:06:17.834Z,-71
2022-08-05T13:08:52.401Z,-65
2022-08-05T13:12:01.781Z,-69
2022-08-05T13:14:24.870Z,-68
2022-08-05T13:17:10.406Z,-70
2022-08-05T13:19:51.839Z,-69
2022-08-05T13:22:29.201Z,-68
2022-08-05T13:25:00.878Z,-69
2022-08-05T13:27:38.522Z,-71
2022-08-05T13:30:33.536Z,-71
2022-08-05T13:33:01.701Z,-70
2022-08-05T13:35:47.435Z,-66
2022-08-05T13:38:31.076Z,-67
2022-08-05T13:41:04.800Z,-64
2022-08-05T13:43:45.377Z,-67
2022-08-05T13:47:01.658Z,-63
2022-08-05T13:49:11.742Z,-65
2022-08-05T13:51:46.481Z,-65
2022-08-05T13:54:21.198Z,-65
2022-08-05T13:56:53.473Z,-65
2022-08-05T13:59:25.095Z,-66
2022-08-05T14:01:56.559Z,-66
2022-08-05T14:04:49.431Z,-66
2022-08-05T14:07:25.605Z,-66
2022-08-05T14:10:13.205Z,-65
2022-08-05T14:12:42.843Z,-66
2022-08-05T14:16:04.519Z,-68
2022-08-05T14:18:01.290Z,-69
2022-08-05T14:20:30.690Z,-70
2022-08-05T14:22:59.054Z,-70
2022-08-05T14:25:30.077Z,-70
2022-08-05T14:27:58.874Z,-69
2022-08-05T14:30:28.357Z,-71
2022-08-05T14:32:58.657Z,-69
2022-08-05T14:35:37.507Z,-68
2022-08-05T14:38:27.682Z,-67
2022-08-05T14:41:06.149Z,-69
2022-08-05T14:44:02.551Z,-70
2022-08-05T14:46:27.210Z,-70
2022-08-05T14:49:04.195Z,-70
2022-08-05T14:51:36.189Z,-70
2022-08-05T14:54:27.747Z,-67
2022-08-05T14:56:57.049Z,-67
2022-08-05T14:59:29.239Z,-67
2022-08-05T15:02:03.542Z,-65
2022-08-05T15:04:43.772Z,-67
2022-08-05T15:08:05.775Z,-69
2022-08-05T15:10:01.554Z,-69
2022-08-05T15:12:51.391Z,-63
2022-08-05T15:15:54.334Z,-68
2022-08-05T15:18:08.899Z,-68
2022-08-05T15:20:37.050Z,-67
2022-08-05T15:23:06.718Z,-68
2022-08-05T15:25:40.920Z,-68
2022-08-05T15:28:23.023Z,-69
2022-08-05T15:30:55.999Z,-69
2022-08-05T15:34:04.496Z,-67
2022-08-05T15:36:17.357Z,-67
2022-08-05T15:40:41.182Z,-68
2022-08-05T15:41:55.158Z,-67
2022-08-05T15:44:26.110Z,-69
2022-08-05T15:46:55.919Z,-68
2022-08-05T15:49:55.097Z,-67
2022-08-05T15:52:16.302Z,-67
2022-08-05T15:54:45.247Z,-69
2022-08-05T15:57:14.624Z,-68
2022-08-05T15:59:45.676Z,-69
2022-08-05T16:02:14.919Z,-69
2022-08-05T16:04:54.895Z,-68
2022-08-05T16:07:23.099Z,-68
2022-08-05T16:09:52.121Z,-68
2022-08-05T16:12:22.396Z,-68
2022-08-05T16:14:53.008Z,-68
2022-08-05T16:17:21.082Z,-68
2022-08-05T16:20:11.773Z,-67
2022-08-05T16:22:37.321Z,-69
2022-08-05T16:25:09.535Z,-68
2022-08-05T16:28:00.670Z,-69
2022-08-05T16:30:29.370Z,-67
2022-08-05T16:32:57.728Z,-67
2022-08-05T16:35:28.592Z,-68
2022-08-05T16:38:15.096Z,-68
2022-08-05T16:40:51.905Z,-68
2022-08-05T16:43:24.712Z,-68
2022-08-05T16:46:04.578Z,-67
2022-08-05T16:48:37.471Z,-67
2022-08-05T16:51:09.034Z,-68
2022-08-05T16:54:03.296Z,-70
2022-08-05T16:56:30.058Z,-68
2022-08-05T16:59:01.013Z,-68
2022-08-05T17:01:54.109Z,-68
2022-08-05T17:04:26.459Z,-68
2022-08-05T17:06:57.007Z,-68
2022-08-05T17:09:29.914Z,-67
2022-08-05T17:11:59.703Z,-67
2022-08-05T17:14:37.102Z,-68
2022-08-05T17:17:14.184Z,-68
2022-08-05T17:19:45.496Z,-69
2022-08-05T17:22:24.791Z,-70
2022-08-05T17:24:57.730Z,-66
2022-08-05T17:27:33.354Z,-67
2022-08-05T17:30:07.108Z,-66
2022-08-05T17:36:07.998Z,-65
2022-08-05T17:38:23.509Z,-65
2022-08-05T17:40:51.533Z,-67
2022-08-05T17:43:47.138Z,-68
2022-08-05T17:46:10.296Z,-67
2022-08-05T17:48:39.919Z,-63
2022-08-05T17:51:13.251Z,-64
2022-08-05T17:53:54.525Z,-64
2022-08-05T17:56:23.119Z,-65
2022-08-05T17:58:56.744Z,-66
2022-08-05T18:01:24.923Z,-64
2022-08-05T18:04:03.837Z,-68
2022-08-05T18:06:32.906Z,-66
2022-08-05T18:09:03.648Z,-67
2022-08-05T18:11:33.221Z,-68
2022-08-05T18:14:04.258Z,-67
2022-08-05T18:16:35.135Z,-68
2022-08-05T18:19:16.419Z,-66
2022-08-05T18:22:09.645Z,-68
2022-08-05T18:24:32.608Z,-69
2022-08-05T18:27:01.152Z,-68
2022-08-05T18:29:40.482Z,-67
2022-08-05T18:32:12.905Z,-67
2022-08-05T18:34:43.148Z,-68
2022-08-05T18:37:12.578Z,-67
2022-08-05T18:40:34.157Z,-69
2022-08-05T18:42:47.891Z,-67
2022-08-05T18:45:15.981Z,-67
2022-08-05T18:47:44.566Z,-68
2022-08-05T18:50:44.982Z,-63
2022-08-05T18:53:22.859Z,-67
2022-08-05T18:55:53.185Z,-67
2022-08-05T18:58:28.607Z,-70
2022-08-05T19:00:57.464Z,-67
2022-08-05T19:03:53.342Z,-60
2022-08-05T19:06:22.034Z,-64
2022-08-05T19:09:02.343Z,-64
2022-08-05T19:11:59.315Z,-69
2022-08-05T19:14:44.752Z,-69
2022-08-05T19:17:11.381Z,-69
2022-08-05T19:19:46.647Z,-66
2022-08-05T19:22:18.571Z,-66
2022-08-05T19:24:54.298Z,-71
2022-08-05T19:27:27.950Z,-71
2022-08-05T19:29:58.833Z,-67
2022-08-05T19:32:27.821Z,-66
2022-08-05T19:34:56.651Z,-65
2022-08-05T19:37:35.026Z,-67
2022-08-05T19:40:16.468Z,-68
2022-08-05T19:43:04.510Z,-68
2022-08-05T19:45:36.759Z,-66
2022-08-05T19:48:06.470Z,-63
2022-08-05T19:50:35.741Z,-66
2022-08-05T19:53:09.517Z,-65
2022-08-05T19:56:14.916Z,-68
2022-08-05T19:58:29.642Z,-67
2022-08-05T20:00:58.184Z,-64
2022-08-05T20:03:29.266Z,-64
2022-08-05T20:06:15.579Z,-64
2022-08-05T20:09:06.273Z,-61
2022-08-05T20:11:42.377Z,-60
2022-08-05T20:14:26.637Z,-66
2022-08-05T20:16:55.796Z,-65
2022-08-05T20:19:24.712Z,-65
2022-08-05T20:22:04.147Z,-66
2022-08-05T20:24:34.352Z,-67
2022-08-05T20:27:03.299Z,-67
2022-08-05T20:29:39.672Z,-68
2022-08-05T20:32:08.328Z,-69
2022-08-05T20:34:38.532Z,-68
2022-08-05T20:37:17.734Z,-65
2022-08-05T20:39:53.903Z,-69
2022-08-05T20:42:26.735Z,-68
2022-08-05T20:44:56.489Z,-66
2022-08-05T20:47:31.939Z,-67
2022-08-05T20:50:02.117Z,-66
2022-08-05T20:52:31.176Z,-65
2022-08-05T20:55:55.293Z,-64
2022-08-05T20:57:49.642Z,-65
2022-08-05T21:00:49.615Z,-64
2022-08-05T21:03:08.468Z,-69
2022-08-05T21:05:53.551Z,-69
2022-08-05T21:08:26.830Z,-64
2022-08-05T21:11:09.165Z,-68
2022-08-05T21:13:48.229Z,-68
2022-08-05T21:16:29.729Z,-68
2022-08-05T21:19:00.012Z,-69
2022-08-05T21:21:44.328Z,-69
2022-08-05T21:24:19.555Z,-67
2022-08-05T21:26:58.437Z,-69
2022-08-05T21:29:31.961Z,-65
2022-08-05T21:32:02.334Z,-67
2022-08-05T21:34:31.713Z,-68
2022-08-05T21:37:01.589Z,-64
2022-08-05T21:39:30.016Z,-64
2022-08-05T21:42:01.075Z,-64
2022-08-05T21:44:30.183Z,-68
2022-08-05T21:46:59.268Z,-63
2022-08-05T21:50:00.199Z,-64
2022-08-05T21:52:26.787Z,-65
2022-08-05T21:54:56.834Z,-68
2022-08-05T21:57:33.738Z,-72
2022-08-05T22:00:05.546Z,-68
2022-08-05T22:02:35.560Z,-71
2022-08-05T22:05:04.520Z,-70
2022-08-05T22:07:54.154Z,-65
2022-08-05T22:10:27.218Z,-71
2022-08-05T22:12:57.824Z,-63
2022-08-05T22:16:00.595Z,-62
2022-08-05T22:18:15.820Z,-62
2022-08-05T22:20:47.774Z,-68
2022-08-05T22:24:03.330Z,-67
2022-08-05T22:26:49.445Z,-68
2022-08-05T22:29:26.905Z,-68
2022-08-05T22:32:03.196Z,-67
2022-08-05T22:34:32.208Z,-66
2022-08-05T22:37:01.105Z,-66
2022-08-05T22:39:34.333Z,-67
2022-08-05T22:42:10.426Z,-67
2022-08-05T22:44:48.342Z,-66
2022-08-05T22:47:29.326Z,-67
2022-08-05T22:50:18.158Z,-66
2022-08-05T22:52:49.631Z,-66
2022-08-05T22:55:22.072Z,-67
2022-08-05T22:57:51.101Z,-66
2022-08-05T23:00:23.587Z,-67
2022-08-05T23:02:53.429Z,-67
2022-08-05T23:05:23.627Z,-68
2022-08-05T23:07:53.268Z,-67
2022-08-05T23:10:23.546Z,-66
2022-08-05T23:12:55.771Z,-67
2022-08-05T23:15:29.269Z,-68
2022-08-05T23:18:01.572Z,-68
2022-08-05T23:20:33.191Z,-65
2022-08-05T23:23:03.545Z,-67
2022-08-05T23:25:51.178Z,-67
2022-08-05T23:28:22.109Z,-66
2022-08-05T23:30:54.700Z,-68
2022-08-05T23:34:03.345Z,-66
2022-08-05T23:36:13.783Z,-67
2022-08-05T23:38:43.540Z,-66
2022-08-05T23:41:12.797Z,-67
2022-08-05T23:44:05.189Z,-66
2022-08-05T23:46:31.103Z,-67
2022-08-05T23:49:01.912Z,-66
2022-08-05T23:52:01.834Z,-68
2022-08-05T23:54:36.320Z,-66
2022-08-05T23:57:07.325Z,-68
